Date,TemperatureHighF,TemperatureAvgF,TemperatureLowF,DewpointHighF,DewpointAvgF,DewpointLowF,HumidityHigh,HumidityAvg,HumidityLow,PressureMaxIn,PressureMinIn,WindSpeedMaxMPH,WindSpeedAvgMPH,GustSpeedMaxMPH,PrecipitationSumIn
2013-5-1,66.3,60.6,54.5,59.0,57.1,54.0,98,89,74,29.51,29.33,19,4,20,0.01
2013-5-2,65.2,60.6,58.1,60.5,58.9,57.5,98,94,82,29.53,29.43,19,4,19,0.02
2013-5-3,69.9,61.3,55.4,59.0,55.1,46.0,98,81,57,29.45,29.32,29,5,29,0.02
2013-5-4,63.7,57.0,50.7,54.5,50.1,44.0,90,78,62,29.32,29.21,22,6,24,0.00
2013-5-5,62.1,57.5,53.4,61.5,56.1,51.0,98,94,84,29.21,29.07,22,7,22,0.46
2013-5-6,70.8,63.6,56.0,62.0,55.4,43.0,98,77,39,29.21,29.05,21,3,21,0.25
2013-5-7,67.9,57.4,45.4,59.0,51.6,44.0,97,83,51,29.25,29.00,12,2,12,0.11
2013-5-8,76.8,63.1,50.3,66.0,55.8,50.0,98,80,46,29.35,29.10,18,2,18,0.01
2013-5-9,82.5,68.1,52.5,61.0,56.5,51.0,98,71,36,29.49,29.19,14,1,14,0.00
2013-5-10,83.4,71.1,55.6,63.0,59.0,55.0,98,69,41,29.47,29.24,16,2,20,0.00
2013-5-11,79.7,71.9,64.8,67.0,62.5,59.0,91,73,55,29.32,29.15,17,3,17,0.01
2013-5-12,75.9,67.8,56.9,66.0,51.5,37.0,97,60,27,29.29,29.10,20,3,24,0.00
2013-5-13,69.9,58.1,45.5,45.0,38.8,29.0,94,54,23,29.46,29.19,19,2,19,0.00
2013-5-14,73.6,59.0,40.6,47.5,41.0,33.0,97,58,29,29.59,29.28,16,2,16,0.00
2013-5-15,87.8,73.0,58.9,61.5,54.7,43.0,72,54,37,29.47,29.27,15,4,15,0.00
2013-5-16,81.6,73.1,59.7,63.5,60.9,57.0,97,67,46,29.45,29.19,17,2,17,0.00
2013-5-17,85.6,72.4,58.1,65.0,60.2,54.5,98,70,37,29.51,29.24,14,2,14,0.00
2013-5-18,76.7,71.0,65.9,69.7,65.0,60.0,99,82,65,29.52,29.35,16,2,16,0.03
2013-5-19,75.7,69.6,66.3,72.3,68.2,66.0,99,96,79,29.47,29.32,14,2,14,0.05
2013-5-20,83.1,73.1,67.5,70.0,68.2,66.3,99,86,59,29.49,29.33,10,2,10,0.01
2013-5-21,85.8,72.7,66.9,72.7,69.4,66.3,99,90,58,29.48,29.27,14,2,14,0.00
2013-5-22,84.8,75.3,67.1,70.0,66.9,63.0,99,78,49,29.44,29.27,13,3,13,0.01
2013-5-23,81.5,72.7,65.7,69.0,66.6,64.5,99,82,60,29.32,29.15,12,2,14,0.00
2013-5-24,74.3,68.0,53.9,65.5,51.2,35.0,98,60,24,29.42,29.13,27,4,31,0.00
2013-5-25,77.1,61.5,43.1,54.0,44.0,36.0,97,60,26,29.63,29.32,12,2,12,0.00
2013-5-26,77.3,64.9,54.2,56.5,47.8,41.0,95,58,32,29.61,29.35,11,2,12,0.00
2013-5-27,84.3,70.0,53.6,63.5,55.7,47.5,97,65,35,29.64,29.37,11,2,12,0.00
2013-5-28,84.8,74.5,63.9,66.0,63.2,60.0,97,70,45,29.67,29.44,12,3,14,0.00
2013-5-29,85.8,73.8,59.6,65.5,61.6,58.0,98,68,42,29.66,29.43,11,2,11,0.00
2013-5-30,87.1,74.4,61.2,66.7,62.8,57.5,98,70,39,29.68,29.45,11,2,11,0.00
2013-5-31,87.8,76.6,64.9,69.3,65.8,60.5,99,72,43,29.66,29.46,13,2,14,0.00